createdAt,value
2023-05-23T00:01:18.511Z,14.27
2023-05-23T00:03:47.718Z,14.48
2023-05-23T00:06:15.834Z,18.95
2023-05-23T00:08:44.990Z,15.18
2023-05-23T00:11:13.421Z,12.63
2023-05-23T00:13:41.275Z,15.88
2023-05-23T00:16:10.724Z,15.57
2023-05-23T00:18:40.295Z,13.63
2023-05-23T00:21:08.104Z,17.98
2023-05-23T00:23:35.887Z,12.98
2023-05-23T00:26:05.219Z,17.60
2023-05-23T00:28:33.000Z,15.80
2023-05-23T00:31:00.831Z,17.70
2023-05-23T00:33:29.959Z,20.60
2023-05-23T00:35:57.842Z,16.83
2023-05-23T00:38:26.783Z,20.92
2023-05-23T00:40:54.599Z,15.85
2023-05-23T00:43:23.877Z,20.75
2023-05-23T00:45:51.754Z,22.17
2023-05-23T00:48:19.682Z,22.48
2023-05-23T00:50:47.729Z,17.73
2023-05-23T00:53:16.966Z,19.13
2023-05-23T00:55:45.796Z,16.33
2023-05-23T00:58:15.238Z,18.30
2023-05-23T01:00:46.411Z,17.52
2023-05-23T01:03:18.333Z,21.47
2023-05-23T01:05:46.463Z,17.63
2023-05-23T01:08:15.837Z,21.05
2023-05-23T01:10:44.060Z,16.77
2023-05-23T01:13:23.202Z,20.73
2023-05-23T01:16:01.870Z,17.23
2023-05-23T01:18:38.673Z,17.20
2023-05-23T01:21:10.836Z,17.88
2023-05-23T01:24:09.012Z,20.77
2023-05-23T01:26:48.577Z,20.25
2023-05-23T01:29:25.651Z,17.50
2023-05-23T01:31:56.006Z,20.73
2023-05-23T01:34:24.149Z,20.77
2023-05-23T01:36:55.696Z,19.05
2023-05-23T01:39:23.722Z,20.98
2023-05-23T01:41:53.486Z,18.98
2023-05-23T01:44:23.436Z,20.08
2023-05-23T01:46:51.346Z,20.38
2023-05-23T01:49:22.044Z,21.15
2023-05-23T01:51:50.685Z,24.15
2023-05-23T01:54:19.795Z,21.60
2023-05-23T01:56:49.396Z,24.35
2023-05-23T01:59:17.214Z,25.48
2023-05-23T02:01:46.470Z,23.45
2023-05-23T02:04:14.642Z,19.65
2023-05-23T02:06:42.512Z,21.13
2023-05-23T02:09:10.554Z,19.88
2023-05-23T02:11:38.740Z,21.52
2023-05-23T02:14:07.127Z,22.65
2023-05-23T02:16:37.194Z,22.95
2023-05-23T02:19:06.499Z,20.33
2023-05-23T02:21:35.464Z,20.05
2023-05-23T02:24:03.612Z,19.35
2023-05-23T02:26:31.522Z,26.33
2023-05-23T02:28:59.278Z,23.98
2023-05-23T02:31:27.967Z,21.08
2023-05-23T02:33:55.922Z,22.92
2023-05-23T02:36:25.099Z,20.50
2023-05-23T02:38:52.906Z,20.38
2023-05-23T02:41:21.371Z,19.63
2023-05-23T02:43:49.129Z,17.50
2023-05-23T02:46:17.039Z,20.73
2023-05-23T02:48:45.467Z,24.58
2023-05-23T02:51:14.590Z,17.98
2023-05-23T02:53:43.732Z,18.33
2023-05-23T02:56:11.778Z,26.08
2023-05-23T02:58:40.336Z,20.70
2023-05-23T03:01:08.672Z,17.50
2023-05-23T03:03:36.599Z,22.65
2023-05-23T03:06:06.602Z,17.17
2023-05-23T03:08:34.455Z,17.10
2023-05-23T03:11:03.732Z,18.27
2023-05-23T03:13:31.940Z,18.42
2023-05-23T03:16:00.132Z,18.95
2023-05-23T03:18:28.019Z,18.17
2023-05-23T03:20:55.762Z,20.88
2023-05-23T03:23:23.589Z,20.45
2023-05-23T03:25:51.488Z,19.55
2023-05-23T03:28:20.699Z,20.60
2023-05-23T03:30:48.502Z,17.42
2023-05-23T03:33:16.335Z,20.75
2023-05-23T03:35:44.695Z,20.80
2023-05-23T03:38:12.469Z,18.85
2023-05-23T03:40:40.591Z,16.65
2023-05-23T03:43:09.450Z,17.38
2023-05-23T03:45:38.731Z,18.92
2023-05-23T03:48:06.816Z,20.67
2023-05-23T03:50:34.554Z,16.30
2023-05-23T03:53:02.303Z,17.33
2023-05-23T03:55:32.228Z,16.85
2023-05-23T03:58:00.201Z,19.05
2023-05-23T04:00:28.463Z,19.65
2023-05-23T04:02:58.207Z,22.77
2023-05-23T04:05:26.250Z,17.85
2023-05-23T04:07:53.932Z,23.48
2023-05-23T04:10:21.705Z,21.45
2023-05-23T04:12:49.444Z,20.83
2023-05-23T04:15:17.962Z,18.77
2023-05-23T04:17:45.962Z,18.92
2023-05-23T04:20:15.459Z,18.88
2023-05-23T04:22:43.225Z,20.45
2023-05-23T04:25:12.169Z,17.98
2023-05-23T04:27:40.784Z,17.48
2023-05-23T04:30:10.114Z,18.02
2023-05-23T04:32:38.477Z,18.83
2023-05-23T04:35:07.304Z,19.50
2023-05-23T04:37:37.793Z,20.05
2023-05-23T04:40:07.263Z,21.45
2023-05-23T04:42:36.058Z,18.58
2023-05-23T04:45:03.890Z,18.83
2023-05-23T04:47:37.095Z,18.05
2023-05-23T04:50:05.653Z,17.75
2023-05-23T04:52:34.126Z,18.02
2023-05-23T04:55:03.728Z,24.15
2023-05-23T04:57:31.995Z,17.65
2023-05-23T05:00:01.064Z,19.92
2023-05-23T05:02:29.080Z,18.98
2023-05-23T05:04:57.045Z,18.35
2023-05-23T05:07:24.815Z,17.48
2023-05-23T05:09:52.741Z,20.05
2023-05-23T05:12:22.174Z,19.33
2023-05-23T05:14:50.029Z,21.05
2023-05-23T05:17:19.368Z,19.20
2023-05-23T05:19:47.479Z,21.52
2023-05-23T05:22:15.305Z,25.00
2023-05-23T05:24:43.258Z,22.55
2023-05-23T05:27:11.999Z,20.85
2023-05-23T05:29:41.338Z,18.15
2023-05-23T05:32:09.733Z,20.35
2023-05-23T05:34:38.144Z,22.17
2023-05-23T05:37:06.167Z,19.48
2023-05-23T05:39:34.201Z,21.27
2023-05-23T05:42:03.766Z,19.70
2023-05-23T05:44:31.565Z,16.40
2023-05-23T05:47:01.247Z,18.88
2023-05-23T05:49:29.024Z,18.88
2023-05-23T05:51:56.885Z,17.02
2023-05-23T05:54:24.804Z,17.45
2023-05-23T05:56:52.624Z,17.38
2023-05-23T05:59:20.481Z,20.98
2023-05-23T06:01:48.791Z,16.20
2023-05-23T06:04:19.308Z,19.00
2023-05-23T06:06:47.089Z,19.75
2023-05-23T06:09:14.857Z,17.17
2023-05-23T06:11:42.600Z,18.38
2023-05-23T06:14:10.637Z,18.77
2023-05-23T06:16:38.990Z,21.23
2023-05-23T06:19:08.485Z,21.33
2023-05-23T06:21:37.738Z,19.25
2023-05-23T06:24:06.000Z,21.52
2023-05-23T06:26:33.908Z,23.00
2023-05-23T06:29:01.704Z,17.45
2023-05-23T06:31:29.681Z,19.40
2023-05-23T06:33:57.546Z,19.58
2023-05-23T06:36:25.349Z,25.38
2023-05-23T06:38:54.570Z,21.73
2023-05-23T06:41:22.684Z,26.23
2023-05-23T06:43:50.466Z,23.50
2023-05-23T06:46:18.478Z,17.33
2023-05-23T06:48:46.351Z,21.27
2023-05-23T06:51:14.149Z,20.75
2023-05-23T06:53:41.990Z,19.42
2023-05-23T06:56:11.290Z,17.13
2023-05-23T06:58:39.053Z,21.67
2023-05-23T07:01:06.933Z,20.80
2023-05-23T07:03:34.741Z,15.68
2023-05-23T07:06:02.519Z,16.73
2023-05-23T07:08:30.360Z,21.17
2023-05-23T07:10:58.113Z,18.20
2023-05-23T07:13:27.616Z,18.50
2023-05-23T07:15:55.485Z,17.35
2023-05-23T07:18:23.262Z,18.80
2023-05-23T07:20:51.210Z,18.60
2023-05-23T07:23:19.064Z,19.88
2023-05-23T07:26:01.344Z,17.77
2023-05-23T07:28:31.538Z,23.08
2023-05-23T07:30:59.333Z,42.03
2023-05-23T07:33:27.155Z,22.05
2023-05-23T07:35:54.920Z,16.95
2023-05-23T07:38:23.148Z,19.08
2023-05-23T07:40:59.214Z,21.50
2023-05-23T07:43:36.461Z,23.02
2023-05-23T07:46:04.371Z,23.20
2023-05-23T07:48:32.269Z,21.05
2023-05-23T07:51:00.199Z,19.95
2023-05-23T07:53:29.276Z,19.35
2023-05-23T07:55:57.368Z,27.25
2023-05-23T07:58:25.213Z,17.98
2023-05-23T08:00:54.465Z,25.23
2023-05-23T08:03:22.260Z,19.38
2023-05-23T08:05:50.882Z,21.85
2023-05-23T08:08:18.691Z,21.38
2023-05-23T08:10:47.138Z,21.38
2023-05-23T08:13:14.979Z,22.52
2023-05-23T08:15:42.814Z,20.27
2023-05-23T08:18:12.539Z,23.85
2023-05-23T08:20:40.682Z,33.13
2023-05-23T08:23:08.614Z,24.52
2023-05-23T08:25:36.467Z,27.75
2023-05-23T08:28:04.638Z,23.23
2023-05-23T08:30:33.592Z,28.92
2023-05-23T08:33:04.762Z,24.52
2023-05-23T08:35:36.698Z,24.25
2023-05-23T08:38:07.874Z,23.65
2023-05-23T08:40:37.418Z,25.63
2023-05-23T08:43:06.113Z,19.50
2023-05-23T08:45:34.914Z,23.23
2023-05-23T08:48:05.867Z,22.63
2023-05-23T08:50:37.330Z,22.52
2023-05-23T08:53:08.618Z,23.52
2023-05-23T08:55:36.638Z,22.73
2023-05-23T08:58:05.724Z,21.67
2023-05-23T09:00:35.103Z,18.65
2023-05-23T09:03:03.392Z,21.00
2023-05-23T09:05:31.729Z,20.17
2023-05-23T09:08:00.935Z,21.90
2023-05-23T09:10:29.923Z,22.35
2023-05-23T09:12:58.782Z,21.90
2023-05-23T09:15:27.404Z,31.73
2023-05-23T09:18:00.614Z,23.27
2023-05-23T09:20:29.489Z,25.38
2023-05-23T09:23:10.028Z,24.05
2023-05-23T09:25:46.990Z,24.05
2023-05-23T09:28:14.924Z,22.42
2023-05-23T09:30:42.854Z,23.38
2023-05-23T09:33:15.216Z,28.60
2023-05-23T09:35:46.403Z,27.00
2023-05-23T09:38:15.652Z,19.00
2023-05-23T09:40:46.622Z,22.02
2023-05-23T09:43:18.704Z,23.65
2023-05-23T09:45:46.848Z,17.98
2023-05-23T09:48:14.990Z,21.92
2023-05-23T09:50:42.953Z,20.75
2023-05-23T09:53:10.838Z,20.40
2023-05-23T09:55:40.563Z,16.08
2023-05-23T09:58:10.235Z,18.75
2023-05-23T10:00:38.783Z,22.88
2023-05-23T10:03:12.741Z,14.98
2023-05-23T10:05:46.180Z,19.05
2023-05-23T10:08:17.490Z,14.90
2023-05-23T10:11:29.760Z,20.17
2023-05-23T10:13:59.100Z,15.43
2023-05-23T10:16:32.466Z,15.70
2023-05-23T10:19:07.953Z,15.02
2023-05-23T10:21:44.147Z,16.23
2023-05-23T10:24:14.432Z,15.77
2023-05-23T10:26:46.217Z,16.92
2023-05-23T10:29:14.429Z,15.02
2023-05-23T10:31:43.151Z,16.42
2023-05-23T10:34:20.642Z,12.77
2023-05-23T10:37:00.417Z,14.30
2023-05-23T10:39:47.268Z,23.80
2023-05-23T10:42:21.069Z,14.05
2023-05-23T10:44:48.987Z,14.60
2023-05-23T10:47:27.916Z,16.67
2023-05-23T10:49:56.786Z,15.85
2023-05-23T10:52:27.599Z,12.13
2023-05-23T10:54:56.721Z,14.25
2023-05-23T10:57:28.053Z,14.93
2023-05-23T10:59:56.185Z,17.73
2023-05-23T11:02:27.872Z,13.70
2023-05-23T11:05:20.026Z,18.83
2023-05-23T11:07:47.828Z,17.58
2023-05-23T11:10:16.702Z,12.88
2023-05-23T11:12:46.084Z,14.35
2023-05-23T11:15:21.933Z,11.88
2023-05-23T11:17:55.127Z,13.27
2023-05-23T11:20:27.456Z,12.00
2023-05-23T11:22:56.745Z,16.15
2023-05-23T11:25:42.231Z,12.98
2023-05-23T11:28:11.780Z,13.05
2023-05-23T11:30:40.893Z,13.60
2023-05-23T11:33:13.441Z,17.30
2023-05-23T11:35:42.860Z,17.98
2023-05-23T11:38:11.789Z,14.45
2023-05-23T11:40:41.729Z,14.60
2023-05-23T11:43:12.242Z,16.38
2023-05-23T11:45:40.845Z,14.93
2023-05-23T11:48:11.660Z,15.20
2023-05-23T11:50:47.008Z,14.98
2023-05-23T11:53:17.217Z,20.73
2023-05-23T11:55:53.462Z,16.15
2023-05-23T11:58:24.249Z,14.65
2023-05-23T12:00:54.431Z,15.48
2023-05-23T12:03:23.215Z,13.32
2023-05-23T12:05:51.372Z,15.65
2023-05-23T12:08:19.092Z,17.08
2023-05-23T12:10:54.379Z,22.95
2023-05-23T12:13:25.479Z,34.08
2023-05-23T12:15:56.276Z,22.60
2023-05-23T12:18:24.517Z,30.88
2023-05-23T12:20:52.918Z,26.17
2023-05-23T12:23:21.430Z,31.90
2023-05-23T12:25:53.798Z,30.95
2023-05-23T12:28:23.649Z,34.72
2023-05-23T12:30:51.388Z,32.63
2023-05-23T12:33:21.689Z,36.35
2023-05-23T12:35:49.547Z,35.92
2023-05-23T12:38:18.013Z,41.03
2023-05-23T12:40:45.825Z,39.88
2023-05-23T12:43:13.683Z,39.15
2023-05-23T12:45:43.527Z,40.78
2023-05-23T12:48:11.651Z,37.75
2023-05-23T12:50:42.623Z,40.38
2023-05-23T12:53:10.392Z,43.33
2023-05-23T12:55:38.191Z,36.30
2023-05-23T12:58:06.004Z,41.38
2023-05-23T13:00:33.871Z,42.67
2023-05-23T13:03:03.145Z,33.60
2023-05-23T13:05:30.935Z,34.50
2023-05-23T13:07:59.540Z,35.53
2023-05-23T13:10:28.941Z,33.97
2023-05-23T13:12:58.352Z,30.45
2023-05-23T13:15:26.559Z,29.77
2023-05-23T13:17:54.390Z,28.70
2023-05-23T13:20:23.875Z,27.63
2023-05-23T13:22:51.690Z,24.45
2023-05-23T13:25:19.509Z,29.02
2023-05-23T13:27:49.107Z,21.25
2023-05-23T13:30:17.358Z,22.27
2023-05-23T13:32:45.149Z,15.85
2023-05-23T13:35:13.415Z,12.98
2023-05-23T13:37:42.652Z,13.55
2023-05-23T13:40:14.406Z,15.70
2023-05-23T13:45:10.459Z,12.52
2023-05-23T13:47:38.424Z,13.25
2023-05-23T13:50:07.318Z,13.80
2023-05-23T13:52:35.158Z,13.52
2023-05-23T13:55:04.772Z,11.25
2023-05-23T13:57:32.710Z,13.63
2023-05-23T14:00:00.588Z,12.93
2023-05-23T14:02:28.499Z,11.18
2023-05-23T14:04:56.360Z,13.48
2023-05-23T14:07:24.575Z,13.43
2023-05-23T14:09:52.827Z,13.02
2023-05-23T14:12:22.068Z,14.38
2023-05-23T14:14:50.114Z,16.67
2023-05-23T14:17:18.038Z,15.05
2023-05-23T14:19:46.844Z,13.95
2023-05-23T14:22:14.949Z,14.25
2023-05-23T14:24:42.833Z,16.55
2023-05-23T14:27:11.535Z,11.18
2023-05-23T14:29:41.129Z,20.42
2023-05-23T14:32:09.158Z,15.10
2023-05-23T14:34:37.086Z,10.70
2023-05-23T14:37:05.243Z,9.82
2023-05-23T14:39:33.053Z,10.77
2023-05-23T14:42:01.016Z,9.98
2023-05-23T14:44:28.848Z,8.68
2023-05-23T14:46:58.257Z,9.18
2023-05-23T14:49:26.012Z,9.73
2023-05-23T14:51:53.805Z,10.80
2023-05-23T14:54:22.340Z,11.27
2023-05-23T14:56:53.135Z,9.55
2023-05-23T14:59:21.808Z,12.50
2023-05-23T15:01:49.964Z,14.77
2023-05-23T15:04:19.239Z,14.65
2023-05-23T15:06:48.158Z,9.80
2023-05-23T15:09:17.134Z,8.80
2023-05-23T15:11:46.091Z,12.60
2023-05-23T15:14:14.149Z,9.73
2023-05-23T15:16:44.518Z,14.30
2023-05-23T15:19:13.056Z,22.33
2023-05-23T15:21:50.399Z,9.75
2023-05-23T15:24:19.948Z,9.82
2023-05-23T15:26:48.281Z,10.90
2023-05-23T15:29:18.210Z,12.35
2023-05-23T15:31:46.326Z,12.85
2023-05-23T15:34:14.130Z,14.40
2023-05-23T15:36:43.557Z,13.07
2023-05-23T15:39:12.152Z,12.30
2023-05-23T15:41:40.351Z,15.77
2023-05-23T15:44:08.314Z,14.98
2023-05-23T15:46:38.075Z,15.57
2023-05-23T15:49:17.633Z,16.05
2023-05-23T15:51:55.139Z,16.05
2023-05-23T15:54:23.340Z,19.80
2023-05-23T15:56:51.167Z,19.90
2023-05-23T15:59:19.302Z,18.77
2023-05-23T16:01:47.145Z,17.45
2023-05-23T16:04:14.979Z,17.73
2023-05-23T16:06:43.065Z,14.15
2023-05-23T16:09:12.258Z,17.55
2023-05-23T16:11:40.247Z,18.92
2023-05-23T16:14:08.565Z,19.90
2023-05-23T16:16:36.527Z,22.55
2023-05-23T16:19:04.998Z,23.25
2023-05-23T16:21:33.338Z,25.13
2023-05-23T16:24:01.227Z,19.33
2023-05-23T16:26:30.455Z,20.85
2023-05-23T16:28:58.558Z,20.25
2023-05-23T16:31:27.938Z,17.65
2023-05-23T16:33:56.529Z,20.95
2023-05-23T16:36:24.632Z,19.88
2023-05-23T16:38:54.695Z,24.02
2023-05-23T16:41:23.493Z,24.48
2023-05-23T16:43:52.704Z,17.90
2023-05-23T16:46:22.372Z,22.75
2023-05-23T16:48:50.297Z,21.35
2023-05-23T16:51:18.065Z,23.33
2023-05-23T16:53:45.871Z,21.27
2023-05-23T16:56:13.678Z,24.15
2023-05-23T16:58:41.880Z,23.85
2023-05-23T17:01:11.212Z,25.55
2023-05-23T17:03:41.356Z,23.90
2023-05-23T17:06:09.454Z,25.77
2023-05-23T17:08:37.281Z,23.67
2023-05-23T17:11:05.197Z,24.25
2023-05-23T17:13:34.591Z,27.90
2023-05-23T17:16:02.505Z,25.67
2023-05-23T17:18:31.952Z,23.20
2023-05-23T17:20:59.805Z,25.42
2023-05-23T17:23:27.957Z,23.27
2023-05-23T17:25:55.911Z,26.00
2023-05-23T17:28:23.696Z,31.70
2023-05-23T17:30:53.253Z,22.05
2023-05-23T17:33:21.318Z,29.73
2023-05-23T17:35:50.504Z,25.70
2023-05-23T17:38:18.287Z,22.38
2023-05-23T17:40:46.321Z,21.52
2023-05-23T17:43:14.182Z,20.08
2023-05-23T17:45:42.099Z,23.08
2023-05-23T17:48:09.904Z,24.15
2023-05-23T17:50:38.235Z,22.42
2023-05-23T17:53:07.896Z,24.17
2023-05-23T17:55:35.729Z,23.15
2023-05-23T17:58:03.895Z,33.38
2023-05-23T18:00:31.744Z,26.40
2023-05-23T18:02:59.651Z,22.77
2023-05-23T18:05:28.225Z,27.13
2023-05-23T18:07:55.954Z,20.67
2023-05-23T18:10:25.615Z,22.17
2023-05-23T18:12:53.436Z,22.58
2023-05-23T18:15:21.308Z,25.83
2023-05-23T18:17:51.644Z,21.00
2023-05-23T18:20:19.536Z,24.15
2023-05-23T18:22:47.644Z,21.60
2023-05-23T18:25:19.357Z,25.38
2023-05-23T18:27:48.653Z,22.65
2023-05-23T18:30:16.677Z,24.35
2023-05-23T18:32:44.473Z,17.30
2023-05-23T18:35:12.560Z,13.00
2023-05-23T18:37:40.325Z,18.15
2023-05-23T18:40:09.625Z,13.35
2023-05-23T18:42:37.474Z,15.02
2023-05-23T18:45:08.008Z,18.17
2023-05-23T18:47:36.380Z,14.13
2023-05-23T18:50:04.438Z,14.35
2023-05-23T18:52:37.126Z,17.17
2023-05-23T18:55:05.651Z,13.65
2023-05-23T18:57:33.502Z,14.20
2023-05-23T19:00:01.408Z,16.42
2023-05-23T19:02:31.101Z,14.50
2023-05-23T19:04:59.054Z,17.05
2023-05-23T19:07:27.321Z,13.65
2023-05-23T19:09:55.371Z,17.98
2023-05-23T19:12:23.919Z,24.70
2023-05-23T19:14:52.201Z,17.52
2023-05-23T19:17:19.965Z,20.60
2023-05-23T19:19:49.407Z,16.83
2023-05-23T19:22:17.355Z,25.58
2023-05-23T19:24:45.262Z,25.13
2023-05-23T19:27:13.854Z,24.77
2023-05-23T19:29:42.377Z,29.42
2023-05-23T19:32:10.318Z,30.70
2023-05-23T19:34:38.224Z,28.35
2023-05-23T19:37:07.588Z,25.45
2023-05-23T19:39:35.408Z,22.77
2023-05-23T19:42:03.124Z,26.40
2023-05-23T19:44:30.961Z,28.48
2023-05-23T19:46:58.716Z,32.33
2023-05-23T19:49:26.822Z,29.60
2023-05-23T19:51:54.586Z,29.73
2023-05-23T19:54:24.266Z,29.50
2023-05-23T19:56:52.174Z,26.70
2023-05-23T19:59:19.996Z,32.85
2023-05-23T20:01:50.334Z,28.05
2023-05-23T20:04:18.507Z,27.35
2023-05-23T20:06:46.435Z,32.20
2023-05-23T20:09:14.690Z,33.90
2023-05-23T20:11:44.084Z,34.83
2023-05-23T20:14:12.185Z,29.70
2023-05-23T20:16:40.249Z,27.02
2023-05-23T20:19:08.316Z,30.27
2023-05-23T20:21:36.565Z,30.65
2023-05-23T20:24:04.374Z,33.55
2023-05-23T20:26:32.272Z,40.97
2023-05-23T20:29:01.458Z,40.30
2023-05-23T20:31:29.316Z,33.03
2023-05-23T20:33:57.066Z,33.42
2023-05-23T20:36:25.096Z,32.53
2023-05-23T20:38:53.536Z,30.08
2023-05-23T20:41:21.800Z,23.48
2023-05-23T20:43:49.554Z,23.02
2023-05-23T20:46:18.995Z,23.52
2023-05-23T20:48:46.792Z,31.15
2023-05-23T20:51:14.661Z,26.30
2023-05-23T20:53:42.462Z,22.95
2023-05-23T20:56:10.575Z,24.65
2023-05-23T20:58:38.441Z,21.45
2023-05-23T21:01:06.303Z,23.35
2023-05-23T21:03:35.905Z,20.92
2023-05-23T21:06:03.858Z,23.23
2023-05-23T21:08:33.810Z,22.15
2023-05-23T21:11:02.502Z,29.58
2023-05-23T21:13:30.566Z,33.67
2023-05-23T21:15:58.437Z,24.65
2023-05-23T21:18:26.461Z,34.13
2023-05-23T21:20:55.985Z,25.10
2023-05-23T21:23:23.800Z,38.88
2023-05-23T21:25:51.615Z,30.27
2023-05-23T21:28:20.436Z,28.23
2023-05-23T21:30:48.653Z,26.65
2023-05-23T21:33:16.622Z,25.10
2023-05-23T21:35:45.328Z,24.38
2023-05-23T21:38:14.611Z,27.45
2023-05-23T21:40:43.033Z,26.65
2023-05-23T21:43:11.461Z,26.58
2023-05-23T21:45:39.408Z,26.23
2023-05-23T21:48:07.363Z,25.83
2023-05-23T21:50:35.298Z,26.20
2023-05-23T21:53:03.090Z,28.95
2023-05-23T21:55:32.260Z,30.10
2023-05-23T21:58:00.134Z,32.95
2023-05-23T22:00:28.061Z,33.60
2023-05-23T22:02:56.325Z,32.10
2023-05-23T22:05:24.224Z,32.53
2023-05-23T22:07:52.273Z,29.98
2023-05-23T22:10:20.503Z,34.45
2023-05-23T22:12:49.663Z,34.20
2023-05-23T22:15:17.496Z,34.25
2023-05-23T22:17:46.821Z,35.58
2023-05-23T22:20:16.702Z,29.80
2023-05-23T22:22:44.648Z,34.83
2023-05-23T22:25:12.545Z,38.95
2023-05-23T22:27:40.373Z,32.55
2023-05-23T22:30:10.446Z,34.10
2023-05-23T22:32:38.697Z,32.17
2023-05-23T22:35:07.230Z,37.88
2023-05-23T22:37:35.095Z,41.20
2023-05-23T22:40:03.166Z,37.65
2023-05-23T22:42:30.999Z,39.72
2023-05-23T22:44:59.080Z,39.08
2023-05-23T22:47:29.377Z,36.53
2023-05-23T22:49:59.267Z,32.05
2023-05-23T22:52:27.612Z,34.08
2023-05-23T22:54:55.533Z,30.70
2023-05-23T22:57:23.360Z,28.27
2023-05-23T22:59:51.353Z,36.00
2023-05-23T23:02:19.498Z,29.13
2023-05-23T23:04:49.063Z,26.38
2023-05-23T23:07:17.356Z,27.90
2023-05-23T23:09:45.420Z,25.58
2023-05-23T23:12:13.168Z,27.38
2023-05-23T23:14:40.972Z,26.63
2023-05-23T23:17:10.147Z,22.98
2023-05-23T23:19:37.941Z,26.20
2023-05-23T23:22:07.194Z,27.85
2023-05-23T23:24:35.193Z,28.67
2023-05-23T23:27:03.214Z,27.65
2023-05-23T23:29:30.992Z,31.00
2023-05-23T23:31:59.737Z,28.50
2023-05-23T23:34:27.555Z,28.23
2023-05-23T23:36:55.434Z,26.40
2023-05-23T23:39:24.660Z,26.23
2023-05-23T23:41:52.412Z,37.88
2023-05-23T23:44:20.210Z,29.50
2023-05-23T23:46:48.192Z,29.67
2023-05-23T23:49:16.676Z,29.88
2023-05-23T23:51:44.445Z,30.02
2023-05-23T23:54:12.273Z,29.17
2023-05-23T23:56:41.387Z,32.22
2023-05-23T23:59:09.470Z,34.25
